sensor_id;sensor_type;location;lat;lon;timestamp;pressure;altitude;pressure_sealevel;temperature;humidity
44920;BME280;30655;53.094;6.072;2022-08-04T00:00:54;101374.50;;;21.40;73.21
44920;BME280;30655;53.094;6.072;2022-08-04T00:03:33;101329.25;;;21.12;73.23
44920;BME280;30655;53.094;6.072;2022-08-04T00:06:15;101397.28;;;21.49;73.67
44920;BME280;30655;53.094;6.072;2022-08-04T00:08:59;101230.13;;;20.44;73.18
44920;BME280;30655;53.094;6.072;2022-08-04T00:14:33;101325.19;;;21.09;73.97
44920;BME280;30655;53.094;6.072;2022-08-04T00:17:16;101357.38;;;21.26;73.85
44920;BME280;30655;53.094;6.072;2022-08-04T00:19:55;101357.56;;;21.21;73.95
44920;BME280;30655;53.094;6.072;2022-08-04T00:22:39;101384.84;;;21.43;73.90
44920;BME280;30655;53.094;6.072;2022-08-04T00:25:10;101218.66;;;20.34;73.96
44920;BME280;30655;53.094;6.072;2022-08-04T00:30:52;101239.13;;;20.28;74.51
44920;BME280;30655;53.094;6.072;2022-08-04T00:33:32;101336.06;;;20.97;74.83
44920;BME280;30655;53.094;6.072;2022-08-04T00:36:19;101196.50;;;20.13;74.98
44920;BME280;30655;53.094;6.072;2022-08-04T00:42:07;101385.50;;;21.23;75.40
44920;BME280;30655;53.094;6.072;2022-08-04T00:48:08;101313.44;;;20.74;74.70
44920;BME280;30655;53.094;6.072;2022-08-04T00:50:43;101239.63;;;20.30;75.17
44920;BME280;30655;53.094;6.072;2022-08-04T00:53:38;101302.78;;;20.81;74.97
44920;BME280;30655;53.094;6.072;2022-08-04T00:56:35;101314.75;;;20.85;74.87
44920;BME280;30655;53.094;6.072;2022-08-04T00:59:24;101227.84;;;20.38;74.24
44920;BME280;30655;53.094;6.072;2022-08-04T01:02:04;101377.75;;;21.25;75.42
44920;BME280;30655;53.094;6.072;2022-08-04T01:04:56;101327.31;;;21.03;74.49
44920;BME280;30655;53.094;6.072;2022-08-04T01:10:58;101208.47;;;20.26;74.27
44920;BME280;30655;53.094;6.072;2022-08-04T01:16:53;101187.97;;;20.14;74.40
44920;BME280;30655;53.094;6.072;2022-08-04T01:19:50;101373.53;;;21.36;74.59
44920;BME280;30655;53.094;6.072;2022-08-04T01:22:36;101266.28;;;20.72;74.74
44920;BME280;30655;53.094;6.072;2022-08-04T01:28:40;101238.16;;;20.58;74.53
44920;BME280;30655;53.094;6.072;2022-08-04T01:31:39;101288.22;;;20.89;74.59
44920;BME280;30655;53.094;6.072;2022-08-04T01:34:15;101199.28;;;20.39;74.79
44920;BME280;30655;53.094;6.072;2022-08-04T01:37:02;101237.53;;;20.61;74.62
44920;BME280;30655;53.094;6.072;2022-08-04T01:39:41;101191.84;;;20.31;75.02
44920;BME280;30655;53.094;6.072;2022-08-04T01:42:20;101187.13;;;20.23;75.01
44920;BME280;30655;53.094;6.072;2022-08-04T01:45:11;101194.25;;;20.24;75.44
44920;BME280;30655;53.094;6.072;2022-08-04T01:48:03;101339.59;;;21.23;75.53
44920;BME280;30655;53.094;6.072;2022-08-04T01:50:38;101359.00;;;21.27;75.42
44920;BME280;30655;53.094;6.072;2022-08-04T01:53:23;101286.78;;;20.92;75.75
44920;BME280;30655;53.094;6.072;2022-08-04T01:56:11;101201.50;;;20.28;75.97
44920;BME280;30655;53.094;6.072;2022-08-04T01:58:50;101214.63;;;20.40;75.90
44920;BME280;30655;53.094;6.072;2022-08-04T02:01:27;101359.31;;;21.34;76.35
44920;BME280;30655;53.094;6.072;2022-08-04T02:04:05;101353.81;;;21.34;76.16
44920;BME280;30655;53.094;6.072;2022-08-04T02:07:06;101324.75;;;21.16;76.23
44920;BME280;30655;53.094;6.072;2022-08-04T02:10:03;101192.81;;;20.35;75.91
44920;BME280;30655;53.094;6.072;2022-08-04T02:12:51;101358.78;;;21.49;75.89
44920;BME280;30655;53.094;6.072;2022-08-04T02:15:30;101192.97;;;20.47;76.22
44920;BME280;30655;53.094;6.072;2022-08-04T02:18:23;101358.59;;;21.54;76.07
44920;BME280;30655;53.094;6.072;2022-08-04T02:21:00;101311.44;;;21.35;76.06
44920;BME280;30655;53.094;6.072;2022-08-04T02:23:50;101180.38;;;20.46;76.19
44920;BME280;30655;53.094;6.072;2022-08-04T02:26:45;101174.22;;;20.49;75.91
44920;BME280;30655;53.094;6.072;2022-08-04T02:29:25;101340.78;;;21.60;76.24
44920;BME280;30655;53.094;6.072;2022-08-04T02:32:18;101250.53;;;20.98;76.26
44920;BME280;30655;53.094;6.072;2022-08-04T02:35:03;101161.44;;;20.53;75.93
44920;BME280;30655;53.094;6.072;2022-08-04T02:38:10;101263.63;;;21.01;76.27
44920;BME280;30655;53.094;6.072;2022-08-04T02:41:05;101332.53;;;21.60;76.31
44920;BME280;30655;53.094;6.072;2022-08-04T02:43:46;101296.81;;;21.43;76.19
44920;BME280;30655;53.094;6.072;2022-08-04T02:46:21;101302.63;;;21.50;76.03
44920;BME280;30655;53.094;6.072;2022-08-04T02:49:02;101330.06;;;21.67;76.27
44920;BME280;30655;53.094;6.072;2022-08-04T02:51:49;101159.00;;;20.60;75.99
44920;BME280;30655;53.094;6.072;2022-08-04T02:54:48;101263.53;;;21.36;75.88
44920;BME280;30655;53.094;6.072;2022-08-04T02:57:41;101169.47;;;20.75;75.70
44920;BME280;30655;53.094;6.072;2022-08-04T03:00:28;101152.50;;;20.73;75.68
44920;BME280;30655;53.094;6.072;2022-08-04T03:03:33;101160.91;;;20.68;75.67
44920;BME280;30655;53.094;6.072;2022-08-04T03:06:57;101314.16;;;21.73;75.79
44920;BME280;30655;53.094;6.072;2022-08-04T03:10:05;101184.75;;;20.93;75.91
44920;BME280;30655;53.094;6.072;2022-08-04T03:16:13;101152.00;;;20.80;75.55
44920;BME280;30655;53.094;6.072;2022-08-04T03:26:25;101304.16;;;21.68;75.19
44920;BME280;30655;53.094;6.072;2022-08-04T03:39:13;101155.59;;;20.63;75.31
44920;BME280;30655;53.094;6.072;2022-08-04T03:59:11;101161.31;;;20.49;76.91
44920;BME280;30655;53.094;6.072;2022-08-04T04:22:20;101236.16;;;20.93;77.32
44920;BME280;30655;53.094;6.072;2022-08-04T04:25:41;101279.91;;;21.24;78.09
44920;BME280;30655;53.094;6.072;2022-08-04T04:32:11;101141.78;;;20.25;78.26
44920;BME280;30655;53.094;6.072;2022-08-04T04:35:47;101290.13;;;21.15;78.61
44920;BME280;30655;53.094;6.072;2022-08-04T04:42:25;101131.94;;;20.15;79.14
44920;BME280;30655;53.094;6.072;2022-08-04T04:45:52;101278.78;;;21.08;79.46
44920;BME280;30655;53.094;6.072;2022-08-04T04:49:11;101145.50;;;20.20;79.27
44920;BME280;30655;53.094;6.072;2022-08-04T04:52:12;101225.53;;;20.74;79.71
44920;BME280;30655;53.094;6.072;2022-08-04T05:09:11;101210.81;;;20.79;80.47
44920;BME280;30655;53.094;6.072;2022-08-04T05:12:25;101137.75;;;20.40;80.70
44920;BME280;30655;53.094;6.072;2022-08-04T05:15:52;101157.41;;;20.59;80.48
44920;BME280;30655;53.094;6.072;2022-08-04T05:19:38;101134.97;;;20.48;80.77
44920;BME280;30655;53.094;6.072;2022-08-04T05:22:15;101265.75;;;21.51;81.08
44920;BME280;30655;53.094;6.072;2022-08-04T05:25:24;101142.47;;;20.77;80.90
44920;BME280;30655;53.094;6.072;2022-08-04T05:28:24;101110.84;;;20.71;81.29
44920;BME280;30655;53.094;6.072;2022-08-04T05:31:41;101131.66;;;20.81;81.09
44920;BME280;30655;53.094;6.072;2022-08-04T05:34:30;101165.34;;;20.98;81.16
44920;BME280;30655;53.094;6.072;2022-08-04T05:37:30;101259.75;;;21.78;81.03
44920;BME280;30655;53.094;6.072;2022-08-04T05:40:34;101228.44;;;21.62;80.47
44920;BME280;30655;53.094;6.072;2022-08-04T05:43:20;101147.69;;;21.17;80.51
44920;BME280;30655;53.094;6.072;2022-08-04T05:46:24;101259.31;;;22.06;80.37
44920;BME280;30655;53.094;6.072;2022-08-04T05:49:04;101231.81;;;21.97;80.57
44920;BME280;30655;53.094;6.072;2022-08-04T05:55:20;101161.38;;;21.75;79.97
44920;BME280;30655;53.094;6.072;2022-08-04T05:58:13;101270.25;;;22.56;79.64
44920;BME280;30655;53.094;6.072;2022-08-04T06:01:05;101189.38;;;22.19;79.05
44920;BME280;30655;53.094;6.072;2022-08-04T06:04:01;101274.38;;;22.83;78.67
44920;BME280;30655;53.094;6.072;2022-08-04T06:06:40;101124.47;;;21.97;78.41
44920;BME280;30655;53.094;6.072;2022-08-04T06:10:01;101131.97;;;22.09;78.07
44920;BME280;30655;53.094;6.072;2022-08-04T06:24:07;101243.19;;;23.03;77.16
44920;BME280;30655;53.094;6.072;2022-08-04T06:26:48;101150.31;;;22.38;76.63
44920;BME280;30655;53.094;6.072;2022-08-04T06:29:25;101245.34;;;22.97;76.58
44920;BME280;30655;53.094;6.072;2022-08-04T06:36:02;101267.34;;;23.18;76.69
44920;BME280;30655;53.094;6.072;2022-08-04T06:39:13;101271.81;;;23.23;76.03
44920;BME280;30655;53.094;6.072;2022-08-04T06:42:23;101275.63;;;23.30;76.16
44920;BME280;30655;53.094;6.072;2022-08-04T06:46:16;101279.00;;;23.36;75.95
44920;BME280;30655;53.094;6.072;2022-08-04T06:49:07;101243.22;;;23.27;75.77
44920;BME280;30655;53.094;6.072;2022-08-04T06:58:18;101252.41;;;23.43;75.01
44920;BME280;30655;53.094;6.072;2022-08-04T07:00:49;101279.38;;;23.71;75.37
44920;BME280;30655;53.094;6.072;2022-08-04T07:03:28;101167.59;;;23.04;74.89
44920;BME280;30655;53.094;6.072;2022-08-04T07:06:07;101148.06;;;22.97;74.55
44920;BME280;30655;53.094;6.072;2022-08-04T07:08:51;101130.72;;;22.96;74.58
44920;BME280;30655;53.094;6.072;2022-08-04T07:15:22;101152.22;;;23.15;74.17
44920;BME280;30655;53.094;6.072;2022-08-04T07:18:50;101143.25;;;23.18;74.40
44920;BME280;30655;53.094;6.072;2022-08-04T07:25:29;101173.22;;;23.44;73.69
44920;BME280;30655;53.094;6.072;2022-08-04T07:42:06;101154.38;;;23.58;72.75
44920;BME280;30655;53.094;6.072;2022-08-04T07:51:07;101290.53;;;24.51;72.81
44920;BME280;30655;53.094;6.072;2022-08-04T07:54:55;101294.44;;;24.50;72.84
44920;BME280;30655;53.094;6.072;2022-08-04T08:00:36;101227.41;;;24.13;72.77
44920;BME280;30655;53.094;6.072;2022-08-04T08:17:19;101297.63;;;24.52;73.92
44920;BME280;30655;53.094;6.072;2022-08-04T08:20:37;101154.84;;;23.60;73.64
44920;BME280;30655;53.094;6.072;2022-08-04T08:26:39;101302.47;;;24.55;73.21
44920;BME280;30655;53.094;6.072;2022-08-04T08:29:40;101269.00;;;24.44;72.44
44920;BME280;30655;53.094;6.072;2022-08-04T08:32:44;101202.69;;;24.04;71.79
44920;BME280;30655;53.094;6.072;2022-08-04T08:35:36;101295.50;;;24.73;72.07
44920;BME280;30655;53.094;6.072;2022-08-04T08:39:00;101302.38;;;24.79;72.23
44920;BME280;30655;53.094;6.072;2022-08-04T08:45:54;101223.69;;;24.33;69.46
44920;BME280;30655;53.094;6.072;2022-08-04T08:49:49;101293.34;;;24.94;70.52
44920;BME280;30655;53.094;6.072;2022-08-04T08:52:55;101294.50;;;24.93;69.31
44920;BME280;30655;53.094;6.072;2022-08-04T09:11:27;101171.16;;;24.45;69.33
44920;BME280;30655;53.094;6.072;2022-08-04T09:23:51;101175.72;;;24.69;68.04
44920;BME280;30655;53.094;6.072;2022-08-04T09:35:02;101291.41;;;26.39;66.61
44920;BME280;30655;53.094;6.072;2022-08-04T09:37:11;101190.22;;;26.49;65.72
44920;BME280;30655;53.094;6.072;2022-08-04T09:43:52;101294.34;;;28.02;61.57
44920;BME280;30655;53.094;6.072;2022-08-04T09:47:33;101324.97;;;28.32;60.46
44920;BME280;30655;53.094;6.072;2022-08-04T09:54:15;101325.31;;;28.27;58.15
44920;BME280;30655;53.094;6.072;2022-08-04T09:58:10;101231.09;;;28.18;57.27
44920;BME280;30655;53.094;6.072;2022-08-04T10:41:32;101275.72;;;30.74;43.17
44920;BME280;30655;53.094;6.072;2022-08-04T10:44:48;101293.59;;;30.52;42.00
44920;BME280;30655;53.094;6.072;2022-08-04T10:48:34;101336.53;;;30.36;43.84
44920;BME280;30655;53.094;6.072;2022-08-04T10:51:46;101288.31;;;29.71;44.20
44920;BME280;30655;53.094;6.072;2022-08-04T10:55:22;101203.91;;;28.72;45.42
44920;BME280;30655;53.094;6.072;2022-08-04T10:58:13;101253.28;;;28.82;44.53
44920;BME280;30655;53.094;6.072;2022-08-04T11:01:59;101325.69;;;29.26;45.23
44920;BME280;30655;53.094;6.072;2022-08-04T11:04:54;101274.56;;;28.67;46.16
44920;BME280;30655;53.094;6.072;2022-08-04T11:08:13;101298.50;;;28.75;46.22
44920;BME280;30655;53.094;6.072;2022-08-04T11:11:16;101278.94;;;28.68;46.54
44920;BME280;30655;53.094;6.072;2022-08-04T11:14:32;101223.94;;;28.21;46.43
44920;BME280;30655;53.094;6.072;2022-08-04T11:17:48;101253.81;;;28.28;45.68
44920;BME280;30655;53.094;6.072;2022-08-04T11:24:02;101243.81;;;27.67;45.71
44920;BME280;30655;53.094;6.072;2022-08-04T11:26:59;101247.88;;;27.73;46.34
44920;BME280;30655;53.094;6.072;2022-08-04T11:30:07;101237.25;;;27.52;45.57
44920;BME280;30655;53.094;6.072;2022-08-04T11:37:08;101392.66;;;28.17;46.27
44920;BME280;30655;53.094;6.072;2022-08-04T11:43:35;101272.31;;;27.41;45.87
44920;BME280;30655;53.094;6.072;2022-08-04T11:50:31;101397.66;;;28.08;45.67
44920;BME280;30655;53.094;6.072;2022-08-04T11:53:33;101362.78;;;27.65;46.59
44920;BME280;30655;53.094;6.072;2022-08-04T11:56:41;101418.66;;;27.82;47.08
44920;BME280;30655;53.094;6.072;2022-08-04T12:03:55;101437.72;;;27.61;47.63
44920;BME280;30655;53.094;6.072;2022-08-04T12:13:38;101411.53;;;27.39;47.13
44920;BME280;30655;53.094;6.072;2022-08-04T12:20:46;101407.78;;;27.32;47.58
44920;BME280;30655;53.094;6.072;2022-08-04T12:22:49;101432.00;;;27.73;47.56
44920;BME280;30655;53.094;6.072;2022-08-04T12:25:35;101452.41;;;28.30;47.38
44920;BME280;30655;53.094;6.072;2022-08-04T12:28:50;101332.91;;;27.81;47.34
44920;BME280;30655;53.094;6.072;2022-08-04T12:31:57;101408.06;;;28.37;46.44
44920;BME280;30655;53.094;6.072;2022-08-04T12:35:10;101360.91;;;28.18;45.60
44920;BME280;30655;53.094;6.072;2022-08-04T12:38:18;101361.63;;;28.41;45.23
44920;BME280;30655;53.094;6.072;2022-08-04T12:41:24;101463.88;;;29.04;43.94
44920;BME280;30655;53.094;6.072;2022-08-04T12:47:39;101474.84;;;29.23;42.78
44920;BME280;30655;53.094;6.072;2022-08-04T12:50:24;101347.44;;;28.50;42.93
44920;BME280;30655;53.094;6.072;2022-08-04T12:53:02;101432.53;;;29.44;41.86
44920;BME280;30655;53.094;6.072;2022-08-04T12:56:12;101425.97;;;29.63;40.75
44920;BME280;30655;53.094;6.072;2022-08-04T12:59:31;101451.97;;;30.21;40.04
44920;BME280;30655;53.094;6.072;2022-08-04T13:03:14;101461.44;;;30.57;39.80
44920;BME280;30655;53.094;6.072;2022-08-04T13:06:22;101356.06;;;29.78;38.83
44920;BME280;30655;53.094;6.072;2022-08-04T13:09:21;101373.78;;;29.60;39.94
44920;BME280;30655;53.094;6.072;2022-08-04T13:12:29;101487.94;;;30.33;39.22
44920;BME280;30655;53.094;6.072;2022-08-04T13:15:25;101424.88;;;30.18;39.67
44920;BME280;30655;53.094;6.072;2022-08-04T13:21:23;101414.28;;;29.90;39.62
44920;BME280;30655;53.094;6.072;2022-08-04T13:27:51;101482.03;;;30.46;38.48
44920;BME280;30655;53.094;6.072;2022-08-04T13:34:08;101462.72;;;30.19;38.96
44920;BME280;30655;53.094;6.072;2022-08-04T13:37:06;101498.22;;;30.26;39.25
44920;BME280;30655;53.094;6.072;2022-08-04T13:39:42;101361.34;;;29.50;39.20
44920;BME280;30655;53.094;6.072;2022-08-04T13:42:58;101364.19;;;29.54;39.38
44920;BME280;30655;53.094;6.072;2022-08-04T13:49:32;101492.63;;;30.22;39.70
44920;BME280;30655;53.094;6.072;2022-08-04T13:56:04;101366.53;;;29.15;40.28
44920;BME280;30655;53.094;6.072;2022-08-04T14:03:13;101410.66;;;28.79;41.78
44920;BME280;30655;53.094;6.072;2022-08-04T14:09:37;101417.16;;;28.34;42.78
44920;BME280;30655;53.094;6.072;2022-08-04T14:15:53;101340.88;;;27.82;43.22
44920;BME280;30655;53.094;6.072;2022-08-04T14:21:42;101445.91;;;28.45;44.63
44920;BME280;30655;53.094;6.072;2022-08-04T14:25:47;101483.84;;;28.83;43.91
44920;BME280;30655;53.094;6.072;2022-08-04T14:28:32;101348.75;;;28.03;44.79
44920;BME280;30655;53.094;6.072;2022-08-04T14:32:25;101435.78;;;28.86;43.65
44920;BME280;30655;53.094;6.072;2022-08-04T14:34:53;101380.69;;;28.69;43.34
44920;BME280;30655;53.094;6.072;2022-08-04T14:37:55;101391.19;;;28.79;42.95
44920;BME280;30655;53.094;6.072;2022-08-04T14:43:59;101455.06;;;29.02;42.23
44920;BME280;30655;53.094;6.072;2022-08-04T14:47:10;101444.78;;;29.06;42.77
44920;BME280;30655;53.094;6.072;2022-08-04T14:49:59;101349.84;;;28.51;41.05
44920;BME280;30655;53.094;6.072;2022-08-04T14:52:45;101342.13;;;28.38;44.95
44920;BME280;30655;53.094;6.072;2022-08-04T14:55:47;101485.53;;;29.21;46.09
44920;BME280;30655;53.094;6.072;2022-08-04T15:02:09;101347.84;;;28.78;46.19
44920;BME280;30655;53.094;6.072;2022-08-04T15:05:13;101475.97;;;29.48;46.61
44920;BME280;30655;53.094;6.072;2022-08-04T15:08:30;101442.31;;;28.97;47.23
44920;BME280;30655;53.094;6.072;2022-08-04T15:11:46;101478.38;;;29.20;46.96
44920;BME280;30655;53.094;6.072;2022-08-04T15:27:53;101350.72;;;28.03;45.67
44920;BME280;30655;53.094;6.072;2022-08-04T15:30:50;101498.88;;;28.52;44.67
44920;BME280;30655;53.094;6.072;2022-08-04T15:33:48;101430.03;;;27.97;43.68
44920;BME280;30655;53.094;6.072;2022-08-04T15:40:10;101363.00;;;27.53;43.72
44920;BME280;30655;53.094;6.072;2022-08-04T15:43:23;101492.22;;;28.34;43.04
44920;BME280;30655;53.094;6.072;2022-08-04T15:46:16;101397.19;;;27.79;44.51
44920;BME280;30655;53.094;6.072;2022-08-04T15:53:12;101500.44;;;28.27;43.70
44920;BME280;30655;53.094;6.072;2022-08-04T16:16:56;101367.50;;;26.10;45.23
44920;BME280;30655;53.094;6.072;2022-08-04T16:27:42;101389.25;;;26.24;44.18
44920;BME280;30655;53.094;6.072;2022-08-04T16:30:46;101432.88;;;26.62;46.16
44920;BME280;30655;53.094;6.072;2022-08-04T16:33:46;101525.84;;;27.45;44.75
44920;BME280;30655;53.094;6.072;2022-08-04T16:40:33;101522.22;;;28.02;43.56
44920;BME280;30655;53.094;6.072;2022-08-04T16:54:53;101549.94;;;27.99;44.70
44920;BME280;30655;53.094;6.072;2022-08-04T17:04:31;101521.38;;;27.02;46.23
44920;BME280;30655;53.094;6.072;2022-08-04T17:07:18;101526.78;;;26.79;47.20
44920;BME280;30655;53.094;6.072;2022-08-04T17:16:53;101401.94;;;25.35;48.36
44920;BME280;30655;53.094;6.072;2022-08-04T17:19:53;101478.06;;;25.84;47.91
44920;BME280;30655;53.094;6.072;2022-08-04T17:22:46;101555.59;;;26.28;48.49
44920;BME280;30655;53.094;6.072;2022-08-04T17:26:29;101412.38;;;25.25;48.46
44920;BME280;30655;53.094;6.072;2022-08-04T17:28:55;101425.28;;;25.21;49.00
44920;BME280;30655;53.094;6.072;2022-08-04T17:35:23;101566.59;;;25.96;50.45
44920;BME280;30655;53.094;6.072;2022-08-04T17:38:14;101414.94;;;24.91;50.15
44920;BME280;30655;53.094;6.072;2022-08-04T17:41:28;101538.72;;;25.61;51.74
44920;BME280;30655;53.094;6.072;2022-08-04T17:44:37;101421.50;;;24.74;52.01
44920;BME280;30655;53.094;6.072;2022-08-04T17:47:35;101579.00;;;25.59;51.96
44920;BME280;30655;53.094;6.072;2022-08-04T17:55:05;101434.00;;;24.19;53.04
44920;BME280;30655;53.094;6.072;2022-08-04T17:58:16;101431.66;;;23.85;54.33
44920;BME280;30655;53.094;6.072;2022-08-04T18:01:02;101424.91;;;23.62;54.02
44920;BME280;30655;53.094;6.072;2022-08-04T18:04:30;101434.81;;;23.63;54.07
44920;BME280;30655;53.094;6.072;2022-08-04T18:11:10;101448.50;;;23.38;54.96
44920;BME280;30655;53.094;6.072;2022-08-04T18:17:54;101489.63;;;23.52;54.63
44920;BME280;30655;53.094;6.072;2022-08-04T18:20:55;101430.47;;;23.08;54.95
44920;BME280;30655;53.094;6.072;2022-08-04T18:23:41;101596.91;;;24.07;54.95
44920;BME280;30655;53.094;6.072;2022-08-04T18:26:33;101575.00;;;23.90;55.24
44920;BME280;30655;53.094;6.072;2022-08-04T18:29:04;101587.47;;;24.08;54.54
44920;BME280;30655;53.094;6.072;2022-08-04T18:32:10;101457.09;;;23.04;54.22
44920;BME280;30655;53.094;6.072;2022-08-04T18:35:11;101599.59;;;23.83;54.30
44920;BME280;30655;53.094;6.072;2022-08-04T18:37:53;101454.66;;;22.82;54.36
44920;BME280;30655;53.094;6.072;2022-08-04T18:40:45;101564.34;;;23.26;54.49
44920;BME280;30655;53.094;6.072;2022-08-04T18:43:34;101607.06;;;23.62;55.21
44920;BME280;30655;53.094;6.072;2022-08-04T18:46:07;101574.00;;;23.32;54.99
44920;BME280;30655;53.094;6.072;2022-08-04T18:48:58;101446.22;;;22.28;56.13
44920;BME280;30655;53.094;6.072;2022-08-04T18:51:41;101613.38;;;23.41;56.04
44920;BME280;30655;53.094;6.072;2022-08-04T18:54:15;101508.06;;;22.68;56.10
44920;BME280;30655;53.094;6.072;2022-08-04T18:57:16;101528.69;;;22.62;57.10
44920;BME280;30655;53.094;6.072;2022-08-04T19:00:09;101578.63;;;22.99;57.14
44920;BME280;30655;53.094;6.072;2022-08-04T19:03:14;101484.97;;;22.23;57.93
44920;BME280;30655;53.094;6.072;2022-08-04T19:06:04;101566.59;;;22.65;57.35
44920;BME280;30655;53.094;6.072;2022-08-04T19:08:39;101604.28;;;22.91;57.03
44920;BME280;30655;53.094;6.072;2022-08-04T19:11:29;101577.94;;;22.72;57.00
44920;BME280;30655;53.094;6.072;2022-08-04T19:14:43;101459.50;;;21.97;57.79
44920;BME280;30655;53.094;6.072;2022-08-04T19:17:30;101607.06;;;22.82;58.78
44920;BME280;30655;53.094;6.072;2022-08-04T19:21:03;101495.59;;;21.86;59.13
44920;BME280;30655;53.094;6.072;2022-08-04T19:27:09;101647.09;;;22.88;58.74
44920;BME280;30655;53.094;6.072;2022-08-04T19:30:34;101636.00;;;22.59;60.98
44920;BME280;30655;53.094;6.072;2022-08-04T19:33:36;101609.63;;;22.49;60.72
44920;BME280;30655;53.094;6.072;2022-08-04T19:36:47;101648.78;;;22.81;60.87
44920;BME280;30655;53.094;6.072;2022-08-04T19:39:31;101507.88;;;21.89;59.89
44920;BME280;30655;53.094;6.072;2022-08-04T19:42:29;101608.94;;;22.52;60.41
44920;BME280;30655;53.094;6.072;2022-08-04T19:45:00;101520.72;;;21.76;60.62
44920;BME280;30655;53.094;6.072;2022-08-04T19:47:39;101494.16;;;21.63;60.53
44920;BME280;30655;53.094;6.072;2022-08-04T19:50:58;101501.63;;;21.54;61.07
44920;BME280;30655;53.094;6.072;2022-08-04T19:53:42;101631.69;;;22.32;60.75
44920;BME280;30655;53.094;6.072;2022-08-04T19:56:16;101578.78;;;21.92;60.92
44920;BME280;30655;53.094;6.072;2022-08-04T19:59:40;101669.75;;;22.39;61.50
44920;BME280;30655;53.094;6.072;2022-08-04T20:02:40;101577.66;;;21.67;61.75
44920;BME280;30655;53.094;6.072;2022-08-04T20:12:16;101634.84;;;21.96;62.24
44920;BME280;30655;53.094;6.072;2022-08-04T20:15:12;101690.53;;;22.19;62.34
44920;BME280;30655;53.094;6.072;2022-08-04T20:17:50;101542.56;;;21.21;62.16
44920;BME280;30655;53.094;6.072;2022-08-04T20:20:39;101526.69;;;21.10;62.60
44920;BME280;30655;53.094;6.072;2022-08-04T20:23:46;101681.63;;;22.05;63.68
44920;BME280;30655;53.094;6.072;2022-08-04T20:26:36;101669.66;;;22.01;63.54
44920;BME280;30655;53.094;6.072;2022-08-04T20:29:24;101480.06;;;20.87;63.22
44920;BME280;30655;53.094;6.072;2022-08-04T20:32:14;101634.34;;;21.85;63.35
44920;BME280;30655;53.094;6.072;2022-08-04T20:38:32;101482.16;;;20.73;65.26
44920;BME280;30655;53.094;6.072;2022-08-04T20:41:30;101662.16;;;21.84;64.45
44920;BME280;30655;53.094;6.072;2022-08-04T20:47:23;101575.72;;;21.16;64.24
44920;BME280;30655;53.094;6.072;2022-08-04T20:50:59;101620.72;;;21.46;64.73
44920;BME280;30655;53.094;6.072;2022-08-04T20:53:35;101648.91;;;21.60;65.01
44920;BME280;30655;53.094;6.072;2022-08-04T20:56:29;101483.38;;;20.41;65.56
44920;BME280;30655;53.094;6.072;2022-08-04T20:59:21;101633.97;;;21.27;65.20
44920;BME280;30655;53.094;6.072;2022-08-04T21:02:07;101492.44;;;20.42;66.32
44920;BME280;30655;53.094;6.072;2022-08-04T21:08:26;101586.22;;;20.66;66.90
44920;BME280;30655;53.094;6.072;2022-08-04T21:10:58;101520.72;;;20.20;66.27
44920;BME280;30655;53.094;6.072;2022-08-04T21:13:47;101527.84;;;20.21;66.82
44920;BME280;30655;53.094;6.072;2022-08-04T21:19:44;101540.06;;;20.15;67.05
44920;BME280;30655;53.094;6.072;2022-08-04T21:22:41;101689.38;;;21.12;66.92
44920;BME280;30655;53.094;6.072;2022-08-04T21:28:54;101683.00;;;21.02;66.86
44920;BME280;30655;53.094;6.072;2022-08-04T21:31:40;101665.06;;;20.96;67.18
44920;BME280;30655;53.094;6.072;2022-08-04T21:34:27;101706.59;;;21.26;67.08
44920;BME280;30655;53.094;6.072;2022-08-04T21:37:46;101707.53;;;21.21;67.48
44920;BME280;30655;53.094;6.072;2022-08-04T21:41:20;101717.22;;;21.19;67.36
44920;BME280;30655;53.094;6.072;2022-08-04T21:44:43;101720.38;;;21.12;68.34
44920;BME280;30655;53.094;6.072;2022-08-04T21:47:45;101572.84;;;20.11;68.21
44920;BME280;30655;53.094;6.072;2022-08-04T21:53:57;101700.28;;;20.94;68.52
44920;BME280;30655;53.094;6.072;2022-08-04T21:57:04;101671.03;;;20.68;68.74
44920;BME280;30655;53.094;6.072;2022-08-04T22:03:15;101574.84;;;19.97;69.23
44920;BME280;30655;53.094;6.072;2022-08-04T22:09:23;101655.28;;;20.51;69.43
44920;BME280;30655;53.094;6.072;2022-08-04T22:12:33;101581.75;;;19.95;70.09
44920;BME280;30655;53.094;6.072;2022-08-04T22:18:44;101576.53;;;19.85;70.54
44920;BME280;30655;53.094;6.072;2022-08-04T22:21:43;101691.56;;;20.61;69.96
44920;BME280;30655;53.094;6.072;2022-08-04T22:24:25;101725.91;;;20.81;70.35
44920;BME280;30655;53.094;6.072;2022-08-04T22:27:47;101674.09;;;20.35;70.38
44920;BME280;30655;53.094;6.072;2022-08-04T22:30:11;101584.69;;;19.76;70.17
44920;BME280;30655;53.094;6.072;2022-08-04T22:33:17;101730.88;;;20.71;70.00
44920;BME280;30655;53.094;6.072;2022-08-04T22:36:53;101600.28;;;19.89;70.51
44920;BME280;30655;53.094;6.072;2022-08-04T22:39:39;101652.19;;;20.22;70.06
44920;BME280;30655;53.094;6.072;2022-08-04T22:42:46;101739.94;;;20.71;69.88
44920;BME280;30655;53.094;6.072;2022-08-04T22:45:44;101728.00;;;20.53;71.46
44920;BME280;30655;53.094;6.072;2022-08-04T22:51:18;101667.03;;;20.20;69.97
44920;BME280;30655;53.094;6.072;2022-08-04T22:51:39;101592.41;;;19.74;70.05
44920;BME280;30655;53.094;6.072;2022-08-04T22:54:46;101566.69;;;19.61;69.87
44920;BME280;30655;53.094;6.072;2022-08-04T22:57:32;101648.75;;;20.16;69.78
44920;BME280;30655;53.094;6.072;2022-08-04T23:00:21;101674.91;;;20.36;69.67
44920;BME280;30655;53.094;6.072;2022-08-04T23:03:05;101721.22;;;20.51;71.34
44920;BME280;30655;53.094;6.072;2022-08-04T23:06:07;101607.16;;;20.00;69.92
44920;BME280;30655;53.094;6.072;2022-08-04T23:12:35;101521.25;;;19.47;69.68